Pagina principale
METAR-TAF:

METAR-TAF

Aeroporti :

Aeroporto di Pisa-San Giusto

Pisa, Italia

latitudine: 43-41N, longitudine: 010-23E, altezza: 2 m

Osservazione

Il bollettino è stato emesso 25 minuti fa, alle 16:45 UTC
Vento 10 kt da ovest/nord-ovest
Temperature 21°C
Umidità 60%
Pressione 1014 hPa
Visibilità 10 km o più
nessuna nube inferiore a 1500 m e nessun cumulonembo

METAR: LIRP 311645Z 30010KT CAVOK 21/13 Q1014 NOSIG

Ora: 19:10 (17:10 UTC)

Previsione

Il bollettino è stato emesso 6 ore e 10 minuti fa, alle 11:00 UTC
Previsione valida dal 31 alle 12 UTC al 01 alle 12 UTC
Vento 12 kt da ovest
Visibilità 10 km o più
nessuna nube inferiore a 1500 m e nessun cumulonembo
Temporaneamente
dal 01 alle 02 UTC al 01 alle 06 UTC
Vento 12 kt da est
Visibilità 10 km o più
Nubi sparse ad un'altezza di 8000 ft

TAF: LIRP 311100Z 3112/0112 28012KT CAVOK TEMPO 0102/0106 10012KT 9999 SCT080

Osservazioni e previsioni meteorologiche di più di 4000 aeroporti (messaggi METAR e TAF).

Le stazioni disponibili sono rappresentate dai dischi gialli e rossi sulla carta.

Puntare il mouse per vedere il nome della stazione.

Clicca sopra per visualizzare le osservazioni e previsioni meteorologiche.

Per cambiare la mappa : fare clic sui pulsanti verdi con una croce nera per ingrandire, il pulsante verde con un trattino per diminuire, o sulla freccia verde per le mappe adiacenti.


METAR-TAF: